Map

Track Data

SID SEASON NUMBER BASIN SUBBASIN NAME ISO_TIME NATURE LAT LON WMO_WIND WMO_PRES WMO_AGENCY TRACK_TYPE DIST2LAND LANDFALL IFLAG USA_AGENCY USA_ATCF_ID USA_LAT USA_LON USA_RECORD USA_STATUS USA_WIND USA_PRES USA_SSHS USA_R34_NE USA_R34_SE USA_R34_SW USA_R34_NW USA_R50_NE USA_R50_SE USA_R50_SW USA_R50_NW USA_R64_NE USA_R64_SE USA_R64_SW USA_R64_NW USA_POCI USA_ROCI USA_RMW USA_EYE TOKYO_LAT TOKYO_LON TOKYO_GRADE TOKYO_WIND TOKYO_PRES TOKYO_R50_DIR TOKYO_R50_LONG TOKYO_R50_SHORT TOKYO_R30_DIR TOKYO_R30_LONG TOKYO_R30_SHORT TOKYO_LAND CMA_LAT CMA_LON CMA_CAT CMA_WIND CMA_PRES HKO_LAT HKO_LON HKO_CAT HKO_WIND HKO_PRES NEWDELHI_LAT NEWDELHI_LON NEWDELHI_GRADE NEWDELHI_WIND NEWDELHI_PRES NEWDELHI_CI NEWDELHI_DP NEWDELHI_POCI REUNION_LAT REUNION_LON REUNION_TYPE REUNION_WIND REUNION_PRES REUNION_TNUM REUNION_CI REUNION_RMW REUNION_R34_NE REUNION_R34_SE REUNION_R34_SW REUNION_R34_NW REUNION_R50_NE REUNION_R50_SE REUNION_R50_SW REUNION_R50_NW REUNION_R64_NE REUNION_R64_SE REUNION_R64_SW REUNION_R64_NW BOM_LAT BOM_LON BOM_TYPE BOM_WIND BOM_PRES BOM_TNUM BOM_CI BOM_RMW BOM_R34_NE BOM_R34_SE BOM_R34_SW BOM_R34_NW BOM_R50_NE BOM_R50_SE BOM_R50_SW BOM_R50_NW BOM_R64_NE BOM_R64_SE BOM_R64_SW BOM_R64_NW BOM_ROCI BOM_POCI BOM_EYE BOM_POS_METHOD BOM_PRES_METHOD NADI_LAT NADI_LON NADI_CAT NADI_WIND NADI_PRES WELLINGTON_LAT WELLINGTON_LON WELLINGTON_WIND WELLINGTON_PRES DS824_LAT DS824_LON DS824_STAGE DS824_WIND DS824_PRES TD9636_LAT TD9636_LON TD9636_STAGE TD9636_WIND TD9636_PRES TD9635_LAT TD9635_LON TD9635_WIND TD9635_PRES TD9635_ROCI NEUMANN_LAT NEUMANN_LON NEUMANN_CLASS NEUMANN_WIND NEUMANN_PRES MLC_LAT MLC_LON MLC_CLASS MLC_WIND MLC_PRES USA_GUST BOM_GUST BOM_GUST_PER REUNION_GUST REUNION_GUST_PER USA_SEAHGT USA_SEARAD_NE USA_SEARAD_SE USA_SEARAD_SW USA_SEARAD_NW STORM_SPEED STORM_DIR
1882046S14071 1882 10 SI MM NOT_NAMED 1882-02-14 18:00:00 NR -13.6000 70.9000 main 1581 1556 __________O___ -1 -13.6000 70.9000 7 5 236
1882046S14071 1882 10 SI MM NOT_NAMED 1882-02-14 21:00:00 NR -13.7281 70.7047 main 1556 1527 __________P___ -1 -13.7281 70.7047 7 5 236
1882046S14071 1882 10 SI MM NOT_NAMED 1882-02-15 00:00:00 NR -13.8649 70.4974 main 1527 1502 __________P___ -1 -13.8649 70.4974 7 5 236
1882046S14071 1882 10 SI MM NOT_NAMED 1882-02-15 03:00:00 NR -14.0193 70.2665 main 1502 1463 __________P___ -1 -14.0193 70.2665 7 6 235
1882046S14071 1882 10 SI MM NOT_NAMED 1882-02-15 06:00:00 NR -14.2000 70.0000 main 1463 1424 __________O___ -1 -14.2000 70.0000 7 7 235
1882046S14071 1882 10 SI MM NOT_NAMED 1882-02-15 09:00:00 NR -14.4133 69.6917 main 1424 1385 __________P___ -1 -14.4133 69.6917 7 8 234
1882046S14071 1882 10 SI MM NOT_NAMED 1882-02-15 12:00:00 NR -14.6552 69.3576 main 1380 1331 __________P___ -1 -14.6552 69.3576 7 8 232
1882046S14071 1882 10 SI MM NOT_NAMED 1882-02-15 15:00:00 NR -14.9195 69.0197 main 1331 1287 __________P___ -1 -14.9195 69.0197 7 8 229
1882046S14071 1882 10 SI MM NOT_NAMED 1882-02-15 18:00:00 NR -15.2000 68.7000 main 1287 1243 __________O___ -1 -15.2000 68.7000 7 8 226
1882046S14071 1882 10 SI MM NOT_NAMED 1882-02-15 21:00:00 NR -15.4733 68.4241 main 1243 1213 __________P___ -1 -15.4733 68.4241 7 8 222
1882046S14071 1882 10 SI MM NOT_NAMED 1882-02-16 00:00:00 NR -15.7623 68.1695 main 1208 1165 __________P___ -1 -15.7623 68.1695 7 8 219
1882046S14071 1882 10 SI MM NOT_NAMED 1882-02-16 03:00:00 NR -16.0702 67.9303 main 1165 1132 __________P___ -1 -16.0702 67.9303 7 8 215
1882046S14071 1882 10 SI MM NOT_NAMED 1882-02-16 06:00:00 NR -16.4000 67.7000 main 1132 1099 __________O___ -1 -16.4000 67.7000 7 8 213
1882046S14071 1882 10 SI MM NOT_NAMED 1882-02-16 09:00:00 NR -16.7615 67.4597 main 1094 1052 __________P___ -1 -16.7615 67.4597 7 9 211
1882046S14071 1882 10 SI MM NOT_NAMED 1882-02-16 12:00:00 NR -17.1424 67.2275 main 1052 1017 __________P___ -1 -17.1424 67.2275 7 9 209
1882046S14071 1882 10 SI MM NOT_NAMED 1882-02-16 15:00:00 NR -17.5272 67.0066 main 1017 982 __________P___ -1 -17.5272 67.0066 7 9 208
1882046S14071 1882 10 SI MM NOT_NAMED 1882-02-16 18:00:00 NR -17.9000 66.8000 main 982 953 __________O___ -1 -17.9000 66.8000 7 8 208
1882046S14071 1882 10 SI MM NOT_NAMED 1882-02-16 21:00:00 NR -18.2515 66.5943 main 950 921 __________P___ -1 -18.2515 66.5943 7 8 209
1882046S14071 1882 10 SI MM NOT_NAMED 1882-02-17 00:00:00 NR -18.5874 66.4049 main 921 893 __________P___ -1 -18.5874 66.4049 7 7 207
1882046S14071 1882 10 SI MM NOT_NAMED 1882-02-17 03:00:00 NR -18.9047 66.2381 main 893 877 __________P___ -1 -18.9047 66.2381 7 7 205
1882046S14071 1882 10 SI MM NOT_NAMED 1882-02-17 06:00:00 NR -19.2000 66.1000 main 877 861 __________O___ -1 -19.2000 66.1000 7 6 202
1882046S14071 1882 10 SI MM NOT_NAMED 1882-02-17 09:00:00 NR -19.4715 65.9919 main 861 848 __________P___ -1 -19.4715 65.9919 7 6 199
1882046S14071 1882 10 SI MM NOT_NAMED 1882-02-17 12:00:00 NR -19.7224 65.9121 main 848 846 __________P___ -1 -19.7224 65.9121 7 5 195
1882046S14071 1882 10 SI MM NOT_NAMED 1882-02-17 15:00:00 NR -19.9621 65.8513 main 846 834 __________P___ -1 -19.9621 65.8513 7 5 193
1882046S14071 1882 10 SI MM NOT_NAMED 1882-02-17 18:00:00 NR -20.2000 65.8000 main 834 833 __________O___ -1 -20.2000 65.8000 7 5 191
1882046S14071 1882 10 SI MM NOT_NAMED 1882-02-17 21:00:00 NR -20.4435 65.7502 main 833 823 __________P___ -1 -20.4435 65.7502 7 5 191
1882046S14071 1882 10 SI MM NOT_NAMED 1882-02-18 00:00:00 NR -20.6926 65.7003 main 823 823 __________P___ -1 -20.6926 65.7003 7 5 191
1882046S14071 1882 10 SI MM NOT_NAMED 1882-02-18 03:00:00 NR -20.9454 65.6502 main 824 815 __________P___ -1 -20.9454 65.6502 7 5 190
1882046S14071 1882 10 SI MM NOT_NAMED 1882-02-18 06:00:00 NR -21.2000 65.6000 main 817 __________O___ -1 -21.2000 65.6000 7 5 187

About IBTrACS Database

This database is a web-friendly format of International Best Track Archive for Climate Stewardship (IBTrACS), a global best track data archive curated by NOAA dating back to 1842.

Updated: 2021-10-08